sensor_id;sensor_type;location;lat;lon;timestamp;pressure;altitude;pressure_sealevel;temperature;humidity
14293;BME280;7230;59.420;17.842;2022-07-10T00:02:24;100666.09;;;25.31;33.67
14293;BME280;7230;59.420;17.842;2022-07-10T00:04:53;100663.41;;;25.31;33.61
14293;BME280;7230;59.420;17.842;2022-07-10T00:07:20;100667.09;;;25.30;33.55
14293;BME280;7230;59.420;17.842;2022-07-10T00:09:50;100665.41;;;25.29;33.76
14293;BME280;7230;59.420;17.842;2022-07-10T00:12:18;100667.25;;;25.28;33.72
14293;BME280;7230;59.420;17.842;2022-07-10T00:14:46;100664.66;;;25.27;34.06
14293;BME280;7230;59.420;17.842;2022-07-10T00:17:13;100663.00;;;25.26;33.72
14293;BME280;7230;59.420;17.842;2022-07-10T00:19:41;100657.59;;;25.26;33.65
14293;BME280;7230;59.420;17.842;2022-07-10T00:22:09;100668.50;;;25.24;33.67
14293;BME280;7230;59.420;17.842;2022-07-10T00:24:37;100659.72;;;25.22;33.88
14293;BME280;7230;59.420;17.842;2022-07-10T00:27:07;100664.25;;;25.22;33.87
14293;BME280;7230;59.420;17.842;2022-07-10T00:29:34;100669.66;;;25.22;34.01
14293;BME280;7230;59.420;17.842;2022-07-10T00:32:03;100662.72;;;25.19;34.13
14293;BME280;7230;59.420;17.842;2022-07-10T00:34:31;100661.84;;;25.18;33.88
14293;BME280;7230;59.420;17.842;2022-07-10T00:36:59;100664.53;;;25.18;33.90
14293;BME280;7230;59.420;17.842;2022-07-10T00:39:27;100660.31;;;25.16;34.06
14293;BME280;7230;59.420;17.842;2022-07-10T00:42:07;100666.72;;;25.15;33.89
14293;BME280;7230;59.420;17.842;2022-07-10T00:44:35;100671.41;;;25.13;34.07
14293;BME280;7230;59.420;17.842;2022-07-10T00:47:04;100658.19;;;25.10;33.92
14293;BME280;7230;59.420;17.842;2022-07-10T00:49:33;100661.75;;;25.10;34.17
14293;BME280;7230;59.420;17.842;2022-07-10T00:52:03;100658.19;;;25.10;34.11
14293;BME280;7230;59.420;17.842;2022-07-10T00:54:32;100667.28;;;25.09;34.21
14293;BME280;7230;59.420;17.842;2022-07-10T00:57:03;100656.78;;;25.06;34.12
14293;BME280;7230;59.420;17.842;2022-07-10T00:59:34;100661.34;;;25.05;34.14
14293;BME280;7230;59.420;17.842;2022-07-10T01:02:03;100657.78;;;25.05;34.28
14293;BME280;7230;59.420;17.842;2022-07-10T01:04:32;100658.78;;;25.04;34.12
14293;BME280;7230;59.420;17.842;2022-07-10T01:07:00;100665.31;;;25.01;34.16
14293;BME280;7230;59.420;17.842;2022-07-10T01:09:28;100661.63;;;25.02;34.14
14293;BME280;7230;59.420;17.842;2022-07-10T01:11:58;100662.03;;;24.98;34.03
14293;BME280;7230;59.420;17.842;2022-07-10T01:14:27;100667.31;;;24.99;34.14
14293;BME280;7230;59.420;17.842;2022-07-10T01:16:57;100671.84;;;24.99;34.07
14293;BME280;7230;59.420;17.842;2022-07-10T01:19:25;100672.00;;;24.97;34.52
14293;BME280;7230;59.420;17.842;2022-07-10T01:21:54;100671.13;;;24.97;34.30
14293;BME280;7230;59.420;17.842;2022-07-10T01:24:22;100665.88;;;24.95;34.36
14293;BME280;7230;59.420;17.842;2022-07-10T01:26:50;100672.13;;;24.96;34.37
14293;BME280;7230;59.420;17.842;2022-07-10T01:29:19;100668.56;;;24.95;34.31
14293;BME280;7230;59.420;17.842;2022-07-10T01:31:49;100674.97;;;24.94;34.37
14293;BME280;7230;59.420;17.842;2022-07-10T01:34:22;100675.94;;;24.93;34.81
14293;BME280;7230;59.420;17.842;2022-07-10T01:36:51;100674.13;;;24.94;34.90
14293;BME280;7230;59.420;17.842;2022-07-10T01:39:20;100666.03;;;24.94;34.65
14293;BME280;7230;59.420;17.842;2022-07-10T01:41:48;100671.56;;;24.92;35.12
14293;BME280;7230;59.420;17.842;2022-07-10T01:44:16;100669.88;;;24.91;35.07
14293;BME280;7230;59.420;17.842;2022-07-10T01:46:44;100668.03;;;24.92;35.14
14293;BME280;7230;59.420;17.842;2022-07-10T01:49:13;100675.25;;;24.91;35.21
14293;BME280;7230;59.420;17.842;2022-07-10T01:51:41;100670.84;;;24.90;35.04
14293;BME280;7230;59.420;17.842;2022-07-10T01:54:10;100675.38;;;24.90;35.30
14293;BME280;7230;59.420;17.842;2022-07-10T01:56:39;100670.00;;;24.90;35.06
14293;BME280;7230;59.420;17.842;2022-07-10T01:59:07;100667.44;;;24.88;35.06
14293;BME280;7230;59.420;17.842;2022-07-10T02:01:35;100667.44;;;24.88;35.20
14293;BME280;7230;59.420;17.842;2022-07-10T02:04:03;100670.16;;;24.88;35.28
14293;BME280;7230;59.420;17.842;2022-07-10T02:06:49;100666.75;;;24.86;35.24
14293;BME280;7230;59.420;17.842;2022-07-10T02:09:17;100665.03;;;24.85;35.41
14293;BME280;7230;59.420;17.842;2022-07-10T02:11:47;100663.34;;;24.84;35.16
14293;BME280;7230;59.420;17.842;2022-07-10T02:14:15;100676.81;;;24.84;35.08
14293;BME280;7230;59.420;17.842;2022-07-10T02:16:43;100673.28;;;24.84;35.61
14293;BME280;7230;59.420;17.842;2022-07-10T02:19:11;100673.28;;;24.84;35.42
14293;BME280;7230;59.420;17.842;2022-07-10T02:21:39;100667.03;;;24.83;35.45
14293;BME280;7230;59.420;17.842;2022-07-10T02:24:07;100673.41;;;24.82;35.22
14293;BME280;7230;59.420;17.842;2022-07-10T02:26:35;100673.41;;;24.82;35.35
14293;BME280;7230;59.420;17.842;2022-07-10T02:29:04;100670.69;;;24.82;35.27
14293;BME280;7230;59.420;17.842;2022-07-10T02:31:32;100673.41;;;24.82;35.30
14293;BME280;7230;59.420;17.842;2022-07-10T02:34:03;100664.50;;;24.82;35.44
14293;BME280;7230;59.420;17.842;2022-07-10T02:36:31;100676.25;;;24.81;35.41
14293;BME280;7230;59.420;17.842;2022-07-10T02:38:59;100670.00;;;24.80;35.42
14293;BME280;7230;59.420;17.842;2022-07-10T02:41:27;100672.56;;;24.82;35.61
14293;BME280;7230;59.420;17.842;2022-07-10T02:43:55;100670.69;;;24.82;35.27
14293;BME280;7230;59.420;17.842;2022-07-10T02:46:24;100668.88;;;24.83;35.55
14293;BME280;7230;59.420;17.842;2022-07-10T02:48:52;100668.00;;;24.82;35.56
14293;BME280;7230;59.420;17.842;2022-07-10T02:51:20;100667.03;;;24.83;35.48
14293;BME280;7230;59.420;17.842;2022-07-10T02:53:49;100674.13;;;24.84;35.22
14293;BME280;7230;59.420;17.842;2022-07-10T02:56:16;100669.44;;;24.86;35.47
14293;BME280;7230;59.420;17.842;2022-07-10T02:58:44;100655.97;;;24.86;35.44
14293;BME280;7230;59.420;17.842;2022-07-10T03:01:12;100664.06;;;24.86;35.51
14293;BME280;7230;59.420;17.842;2022-07-10T03:03:42;100668.44;;;24.87;35.24
14293;BME280;7230;59.420;17.842;2022-07-10T03:06:10;100667.44;;;24.88;35.25
14293;BME280;7230;59.420;17.842;2022-07-10T03:08:38;100674.69;;;24.88;35.39
14293;BME280;7230;59.420;17.842;2022-07-10T03:11:06;100671.97;;;24.88;35.36
14293;BME280;7230;59.420;17.842;2022-07-10T03:13:34;100677.53;;;24.86;35.38
14293;BME280;7230;59.420;17.842;2022-07-10T03:16:02;100679.22;;;24.87;35.49
14293;BME280;7230;59.420;17.842;2022-07-10T03:18:31;100673.81;;;24.87;35.56
14293;BME280;7230;59.420;17.842;2022-07-10T03:21:00;100669.44;;;24.86;35.61
14293;BME280;7230;59.420;17.842;2022-07-10T03:23:28;100675.13;;;24.83;35.35
14293;BME280;7230;59.420;17.842;2022-07-10T03:25:56;100676.69;;;24.86;35.61
14293;BME280;7230;59.420;17.842;2022-07-10T03:28:24;100688.44;;;24.85;35.37
14293;BME280;7230;59.420;17.842;2022-07-10T03:30:52;100681.38;;;24.84;35.35
14293;BME280;7230;59.420;17.842;2022-07-10T03:33:20;100676.09;;;24.82;35.57
14293;BME280;7230;59.420;17.842;2022-07-10T03:35:48;100670.69;;;24.82;35.55
14293;BME280;7230;59.420;17.842;2022-07-10T03:38:17;100675.28;;;24.82;35.69
14293;BME280;7230;59.420;17.842;2022-07-10T03:40:45;100677.09;;;24.81;35.75
14293;BME280;7230;59.420;17.842;2022-07-10T03:43:14;100658.78;;;24.66;35.53
14293;BME280;7230;59.420;17.842;2022-07-10T03:45:42;100677.97;;;24.82;36.05
14293;BME280;7230;59.420;17.842;2022-07-10T03:48:10;100674.13;;;24.84;35.68
14293;BME280;7230;59.420;17.842;2022-07-10T03:50:38;100675.53;;;24.88;35.90
14293;BME280;7230;59.420;17.842;2022-07-10T03:53:06;100675.25;;;24.91;35.68
14293;BME280;7230;59.420;17.842;2022-07-10T03:55:35;100669.88;;;24.91;35.48
14293;BME280;7230;59.420;17.842;2022-07-10T03:58:03;100676.38;;;24.98;35.58
14293;BME280;7230;59.420;17.842;2022-07-10T04:00:30;100676.78;;;25.03;35.55
14293;BME280;7230;59.420;17.842;2022-07-10T04:03:01;100680.06;;;25.07;35.61
14293;BME280;7230;59.420;17.842;2022-07-10T04:05:30;100682.31;;;25.11;35.70
14293;BME280;7230;59.420;17.842;2022-07-10T04:07:59;100678.34;;;25.15;35.28
14293;BME280;7230;59.420;17.842;2022-07-10T04:10:28;100684.44;;;25.17;35.35
14293;BME280;7230;59.420;17.842;2022-07-10T04:12:58;100676.75;;;25.23;35.42
14293;BME280;7230;59.420;17.842;2022-07-10T04:15:26;100659.88;;;25.11;35.03
14293;BME280;7230;59.420;17.842;2022-07-10T04:17:54;100690.38;;;25.31;35.14
14293;BME280;7230;59.420;17.842;2022-07-10T04:20:22;100693.63;;;25.34;34.79
14293;BME280;7230;59.420;17.842;2022-07-10T04:22:51;100693.19;;;25.39;34.82
14293;BME280;7230;59.420;17.842;2022-07-10T04:25:19;100688.50;;;25.41;34.66
14293;BME280;7230;59.420;17.842;2022-07-10T04:27:47;100690.22;;;25.42;34.54
14293;BME280;7230;59.420;17.842;2022-07-10T04:30:16;100686.38;;;25.44;34.87
14293;BME280;7230;59.420;17.842;2022-07-10T04:32:44;100688.22;;;25.44;34.63
14293;BME280;7230;59.420;17.842;2022-07-10T04:35:12;100698.84;;;25.45;34.81
14293;BME280;7230;59.420;17.842;2022-07-10T04:37:40;100698.75;;;25.47;34.91
14293;BME280;7230;59.420;17.842;2022-07-10T04:40:09;100698.75;;;25.47;34.60
14293;BME280;7230;59.420;17.842;2022-07-10T04:42:37;100695.03;;;25.48;34.71
14293;BME280;7230;59.420;17.842;2022-07-10T04:45:05;100695.03;;;25.48;34.50
14293;BME280;7230;59.420;17.842;2022-07-10T04:47:35;100704.00;;;25.48;34.71
14293;BME280;7230;59.420;17.842;2022-07-10T04:50:03;100704.97;;;25.47;34.53
14293;BME280;7230;59.420;17.842;2022-07-10T04:52:31;100708.69;;;25.46;34.84
14293;BME280;7230;59.420;17.842;2022-07-10T04:54:59;100712.34;;;25.45;34.62
14293;BME280;7230;59.420;17.842;2022-07-10T04:57:27;100714.19;;;25.45;34.37
14293;BME280;7230;59.420;17.842;2022-07-10T04:59:55;100718.75;;;25.44;34.71
14293;BME280;7230;59.420;17.842;2022-07-10T05:02:24;100710.66;;;25.44;34.56
14293;BME280;7230;59.420;17.842;2022-07-10T05:04:53;100714.19;;;25.45;34.91
14293;BME280;7230;59.420;17.842;2022-07-10T05:07:21;100719.56;;;25.45;34.81
14293;BME280;7230;59.420;17.842;2022-07-10T05:09:49;100719.56;;;25.45;34.52
14293;BME280;7230;59.420;17.842;2022-07-10T05:12:17;100708.97;;;25.34;34.79
14293;BME280;7230;59.420;17.842;2022-07-10T05:14:45;100721.44;;;25.44;34.79
14293;BME280;7230;59.420;17.842;2022-07-10T05:17:13;100723.28;;;25.44;34.45
14293;BME280;7230;59.420;17.842;2022-07-10T05:19:41;100718.75;;;25.44;34.62
14293;BME280;7230;59.420;17.842;2022-07-10T05:22:10;100721.44;;;25.44;34.92
14293;BME280;7230;59.420;17.842;2022-07-10T05:24:38;100713.34;;;25.44;34.26
14293;BME280;7230;59.420;17.842;2022-07-10T05:27:06;100717.72;;;25.45;34.20
14293;BME280;7230;59.420;17.842;2022-07-10T05:29:34;100716.78;;;25.46;34.77
14293;BME280;7230;59.420;17.842;2022-07-10T05:32:02;100720.34;;;25.47;34.69
14293;BME280;7230;59.420;17.842;2022-07-10T05:34:30;100702.16;;;25.39;34.34
14293;BME280;7230;59.420;17.842;2022-07-10T05:36:58;100720.19;;;25.48;34.16
14293;BME280;7230;59.420;17.842;2022-07-10T05:39:27;100712.94;;;25.49;34.41
14293;BME280;7230;59.420;17.842;2022-07-10T05:41:55;100722.72;;;25.50;34.36
14293;BME280;7230;59.420;17.842;2022-07-10T05:44:24;100724.31;;;25.52;34.08
14293;BME280;7230;59.420;17.842;2022-07-10T05:46:52;100724.16;;;25.54;33.88
14293;BME280;7230;59.420;17.842;2022-07-10T05:49:20;100725.00;;;25.54;34.40
14293;BME280;7230;59.420;17.842;2022-07-10T05:51:48;100726.69;;;25.55;34.33
14293;BME280;7230;59.420;17.842;2022-07-10T05:54:16;100720.13;;;25.58;33.78
14293;BME280;7230;59.420;17.842;2022-07-10T05:56:45;100710.91;;;25.60;34.07
14293;BME280;7230;59.420;17.842;2022-07-10T05:59:13;100724.25;;;25.62;33.79
14293;BME280;7230;59.420;17.842;2022-07-10T06:01:41;100712.31;;;25.64;33.52
14293;BME280;7230;59.420;17.842;2022-07-10T06:04:09;100710.31;;;25.66;33.72
14293;BME280;7230;59.420;17.842;2022-07-10T06:06:37;100719.00;;;25.70;33.36
14293;BME280;7230;59.420;17.842;2022-07-10T06:09:05;100719.69;;;25.72;33.81
14293;BME280;7230;59.420;17.842;2022-07-10T06:11:33;100721.06;;;25.76;33.59
14293;BME280;7230;59.420;17.842;2022-07-10T06:14:03;100719.09;;;25.78;33.55
14293;BME280;7230;59.420;17.842;2022-07-10T06:16:30;100727.91;;;25.80;33.45
14293;BME280;7230;59.420;17.842;2022-07-10T06:18:59;100726.75;;;25.83;33.31
14293;BME280;7230;59.420;17.842;2022-07-10T06:21:26;100737.25;;;25.86;33.22
14293;BME280;7230;59.420;17.842;2022-07-10T06:23:54;100734.28;;;25.89;33.56
14293;BME280;7230;59.420;17.842;2022-07-10T06:26:22;100732.56;;;25.88;33.56
14293;BME280;7230;59.420;17.842;2022-07-10T06:28:51;100681.09;;;25.62;33.18
14293;BME280;7230;59.420;17.842;2022-07-10T06:31:20;100734.38;;;25.97;33.47
14293;BME280;7230;59.420;17.842;2022-07-10T06:33:48;100738.63;;;25.99;33.23
14293;BME280;7230;59.420;17.842;2022-07-10T06:36:16;100738.47;;;26.01;32.86
14293;BME280;7230;59.420;17.842;2022-07-10T06:38:50;100731.06;;;26.03;32.76
14293;BME280;7230;59.420;17.842;2022-07-10T06:41:18;100717.75;;;25.92;32.92
14293;BME280;7230;59.420;17.842;2022-07-10T06:43:46;100740.59;;;26.07;33.02
14293;BME280;7230;59.420;17.842;2022-07-10T06:46:14;100737.72;;;26.08;32.77
14293;BME280;7230;59.420;17.842;2022-07-10T06:48:44;100744.84;;;26.09;32.57
14293;BME280;7230;59.420;17.842;2022-07-10T06:51:11;100750.06;;;26.11;32.92
14293;BME280;7230;59.420;17.842;2022-07-10T06:53:44;100751.66;;;26.13;32.49
14293;BME280;7230;59.420;17.842;2022-07-10T06:56:13;100742.56;;;26.14;32.54
14293;BME280;7230;59.420;17.842;2022-07-10T06:58:42;100743.25;;;26.16;32.89
14293;BME280;7230;59.420;17.842;2022-07-10T07:01:10;100742.97;;;26.19;32.75
14293;BME280;7230;59.420;17.842;2022-07-10T07:03:38;100744.66;;;26.20;32.64
14293;BME280;7230;59.420;17.842;2022-07-10T07:06:07;100744.34;;;26.23;32.48
14293;BME280;7230;59.420;17.842;2022-07-10T07:08:36;100745.03;;;26.25;32.13
14293;BME280;7230;59.420;17.842;2022-07-10T07:11:05;100736.81;;;26.27;32.45
14293;BME280;7230;59.420;17.842;2022-07-10T07:13:33;100736.50;;;26.30;32.09
14293;BME280;7230;59.420;17.842;2022-07-10T07:16:01;100748.00;;;26.32;32.57
14293;BME280;7230;59.420;17.842;2022-07-10T07:18:33;100751.41;;;26.34;32.48
14293;BME280;7230;59.420;17.842;2022-07-10T07:21:03;100745.00;;;26.35;32.07
14293;BME280;7230;59.420;17.842;2022-07-10T07:23:49;100752.09;;;26.36;32.22
14293;BME280;7230;59.420;17.842;2022-07-10T07:26:17;100750.25;;;26.36;32.11
14293;BME280;7230;59.420;17.842;2022-07-10T07:28:45;100701.47;;;26.11;32.54
14293;BME280;7230;59.420;17.842;2022-07-10T07:31:13;100756.22;;;26.40;32.14
14293;BME280;7230;59.420;17.842;2022-07-10T07:33:44;100753.34;;;26.42;32.57
14293;BME280;7230;59.420;17.842;2022-07-10T07:36:12;100755.91;;;26.43;32.07
14293;BME280;7230;59.420;17.842;2022-07-10T07:38:40;100748.66;;;26.44;31.90
14293;BME280;7230;59.420;17.842;2022-07-10T07:41:10;100752.06;;;26.46;32.31
14293;BME280;7230;59.420;17.842;2022-07-10T07:43:38;100757.59;;;26.44;32.26
14293;BME280;7230;59.420;17.842;2022-07-10T07:46:06;100758.31;;;26.46;32.19
14293;BME280;7230;59.420;17.842;2022-07-10T07:48:34;100753.75;;;26.47;31.91
14293;BME280;7230;59.420;17.842;2022-07-10T07:51:03;100753.59;;;26.48;31.88
14293;BME280;7230;59.420;17.842;2022-07-10T07:53:31;100752.75;;;26.48;31.79
14293;BME280;7230;59.420;17.842;2022-07-10T07:55:59;100751.75;;;26.49;31.88
14293;BME280;7230;59.420;17.842;2022-07-10T07:58:28;100754.28;;;26.50;31.71
14293;BME280;7230;59.420;17.842;2022-07-10T08:00:56;100752.59;;;26.49;31.66
14293;BME280;7230;59.420;17.842;2022-07-10T08:03:26;100770.50;;;26.50;31.63
14293;BME280;7230;59.420;17.842;2022-07-10T08:06:13;100758.16;;;26.48;32.17
14293;BME280;7230;59.420;17.842;2022-07-10T08:08:41;100754.75;;;26.46;31.69
14293;BME280;7230;59.420;17.842;2022-07-10T08:11:09;100761.31;;;26.43;31.73
14293;BME280;7230;59.420;17.842;2022-07-10T08:13:38;100767.72;;;26.42;31.77
14293;BME280;7230;59.420;17.842;2022-07-10T08:16:06;100762.78;;;26.38;32.28
14293;BME280;7230;59.420;17.842;2022-07-10T08:18:35;100772.16;;;26.33;31.79
14293;BME280;7230;59.420;17.842;2022-07-10T08:21:04;100771.47;;;26.31;32.22
14293;BME280;7230;59.420;17.842;2022-07-10T08:23:32;100773.63;;;26.28;31.70
14293;BME280;7230;59.420;17.842;2022-07-10T08:26:00;100765.66;;;26.26;31.75
14293;BME280;7230;59.420;17.842;2022-07-10T08:28:28;100765.97;;;26.23;32.17
14293;BME280;7230;59.420;17.842;2022-07-10T08:30:57;100780.50;;;26.22;32.26
14293;BME280;7230;59.420;17.842;2022-07-10T08:33:25;100775.38;;;26.19;32.27
14293;BME280;7230;59.420;17.842;2022-07-10T08:35:53;100777.38;;;26.17;32.31
14293;BME280;7230;59.420;17.842;2022-07-10T08:38:45;100783.94;;;26.15;31.90
14293;BME280;7230;59.420;17.842;2022-07-10T08:41:13;100781.38;;;26.13;31.96
14293;BME280;7230;59.420;17.842;2022-07-10T08:43:42;100786.91;;;26.12;32.02
14293;BME280;7230;59.420;17.842;2022-07-10T08:46:12;100785.34;;;26.09;31.92
14293;BME280;7230;59.420;17.842;2022-07-10T08:48:42;100787.88;;;26.11;32.22
14293;BME280;7230;59.420;17.842;2022-07-10T08:51:16;100780.94;;;26.08;31.99
14293;BME280;7230;59.420;17.842;2022-07-10T08:53:49;100781.22;;;26.05;32.08
14293;BME280;7230;59.420;17.842;2022-07-10T08:56:18;100792.19;;;26.04;32.51
14293;BME280;7230;59.420;17.842;2022-07-10T08:58:47;100791.50;;;26.02;32.48
14293;BME280;7230;59.420;17.842;2022-07-10T09:01:19;100796.72;;;26.03;32.45
14293;BME280;7230;59.420;17.842;2022-07-10T09:03:49;100789.78;;;26.01;32.52
14293;BME280;7230;59.420;17.842;2022-07-10T09:06:18;100794.31;;;26.00;32.40
14293;BME280;7230;59.420;17.842;2022-07-10T09:09:03;100789.94;;;25.99;31.97
14293;BME280;7230;59.420;17.842;2022-07-10T09:11:32;100795.34;;;25.99;31.96
14293;BME280;7230;59.420;17.842;2022-07-10T09:14:00;100791.78;;;25.99;32.33
14293;BME280;7230;59.420;17.842;2022-07-10T09:16:32;100771.22;;;25.88;32.24
14293;BME280;7230;59.420;17.842;2022-07-10T09:19:16;100794.31;;;26.00;32.17
14293;BME280;7230;59.420;17.842;2022-07-10T09:21:45;100798.03;;;25.99;32.22
14293;BME280;7230;59.420;17.842;2022-07-10T09:24:13;100793.47;;;26.00;31.93
14293;BME280;7230;59.420;17.842;2022-07-10T09:26:57;100798.03;;;25.99;32.04
14293;BME280;7230;59.420;17.842;2022-07-10T09:29:25;100800.00;;;25.97;32.45
14293;BME280;7230;59.420;17.842;2022-07-10T09:31:55;100802.88;;;25.96;32.24
14293;BME280;7230;59.420;17.842;2022-07-10T09:34:37;100808.28;;;25.96;32.16
14293;BME280;7230;59.420;17.842;2022-07-10T09:37:23;100814.81;;;25.93;32.15
14293;BME280;7230;59.420;17.842;2022-07-10T09:39:58;100813.25;;;25.91;32.12
14293;BME280;7230;59.420;17.842;2022-07-10T09:42:33;100815.25;;;25.89;32.63
14293;BME280;7230;59.420;17.842;2022-07-10T09:45:17;100814.84;;;25.84;32.31
14293;BME280;7230;59.420;17.842;2022-07-10T09:47:54;100823.78;;;25.84;32.73
14293;BME280;7230;59.420;17.842;2022-07-10T09:50:25;100806.75;;;25.74;32.73
14293;BME280;7230;59.420;17.842;2022-07-10T09:52:55;100815.44;;;25.77;32.79
14293;BME280;7230;59.420;17.842;2022-07-10T09:55:24;100826.81;;;25.81;32.64
14293;BME280;7230;59.420;17.842;2022-07-10T09:57:55;100804.22;;;25.63;32.33
14293;BME280;7230;59.420;17.842;2022-07-10T10:00:28;100826.06;;;25.79;32.44
14293;BME280;7230;59.420;17.842;2022-07-10T10:02:59;100828.34;;;25.74;32.65
14293;BME280;7230;59.420;17.842;2022-07-10T10:05:35;100829.78;;;25.78;32.45
14293;BME280;7230;59.420;17.842;2022-07-10T10:08:10;100831.63;;;25.77;32.71
14293;BME280;7230;59.420;17.842;2022-07-10T10:10:44;100836.16;;;25.77;32.62
14293;BME280;7230;59.420;17.842;2022-07-10T10:13:16;100834.44;;;25.76;32.69
14293;BME280;7230;59.420;17.842;2022-07-10T10:15:46;100840.88;;;25.75;32.52
14293;BME280;7230;59.420;17.842;2022-07-10T10:18:17;100847.94;;;25.76;32.53
14293;BME280;7230;59.420;17.842;2022-07-10T10:20:47;100839.16;;;25.74;32.39
14293;BME280;7230;59.420;17.842;2022-07-10T10:23:15;100850.81;;;25.74;32.29
14293;BME280;7230;59.420;17.842;2022-07-10T10:25:44;100844.56;;;25.74;32.63
14293;BME280;7230;59.420;17.842;2022-07-10T10:28:14;100832.47;;;25.68;32.75
14293;BME280;7230;59.420;17.842;2022-07-10T10:30:44;100836.44;;;25.74;32.92
14293;BME280;7230;59.420;17.842;2022-07-10T10:33:45;100849.94;;;25.74;32.79
14293;BME280;7230;59.420;17.842;2022-07-10T10:36:44;100851.78;;;25.73;33.23
14293;BME280;7230;59.420;17.842;2022-07-10T10:39:14;100852.66;;;25.74;33.93
14293;BME280;7230;59.420;17.842;2022-07-10T10:41:47;100861.31;;;25.77;34.50
14293;BME280;7230;59.420;17.842;2022-07-10T10:44:22;100856.22;;;25.74;34.96
14293;BME280;7230;59.420;17.842;2022-07-10T10:47:01;100869.13;;;25.81;34.89
14293;BME280;7230;59.420;17.842;2022-07-10T10:49:50;100864.59;;;25.81;34.49
14293;BME280;7230;59.420;17.842;2022-07-10T10:52:19;100859.91;;;25.83;34.20
14293;BME280;7230;59.420;17.842;2022-07-10T10:55:04;100869.69;;;25.84;33.94
14293;BME280;7230;59.420;17.842;2022-07-10T10:57:37;100866.00;;;25.85;33.87
14293;BME280;7230;59.420;17.842;2022-07-10T11:00:07;100860.44;;;25.87;33.53
14293;BME280;7230;59.420;17.842;2022-07-10T11:02:37;100864.00;;;25.87;33.59
14293;BME280;7230;59.420;17.842;2022-07-10T11:05:42;100867.41;;;25.89;33.56
14293;BME280;7230;59.420;17.842;2022-07-10T11:08:11;100872.78;;;25.89;33.94
14293;BME280;7230;59.420;17.842;2022-07-10T11:10:41;100881.63;;;25.91;33.60
14293;BME280;7230;59.420;17.842;2022-07-10T11:13:15;100881.63;;;25.91;33.92
14293;BME280;7230;59.420;17.842;2022-07-10T11:15:45;100877.06;;;25.92;33.76
14293;BME280;7230;59.420;17.842;2022-07-10T11:18:14;100883.31;;;25.92;34.05
14293;BME280;7230;59.420;17.842;2022-07-10T11:20:46;100881.47;;;25.93;33.75
14293;BME280;7230;59.420;17.842;2022-07-10T11:23:51;100880.91;;;25.89;33.92
14293;BME280;7230;59.420;17.842;2022-07-10T11:26:27;100886.28;;;25.89;33.79
14293;BME280;7230;59.420;17.842;2022-07-10T11:29:03;100882.63;;;25.90;33.58
14293;BME280;7230;59.420;17.842;2022-07-10T11:31:32;100886.28;;;25.89;33.59
14293;BME280;7230;59.420;17.842;2022-07-10T11:34:06;100883.47;;;25.91;33.99
14293;BME280;7230;59.420;17.842;2022-07-10T11:36:39;100888.72;;;25.92;34.18
14293;BME280;7230;59.420;17.842;2022-07-10T11:39:08;100863.75;;;25.81;34.64
14293;BME280;7230;59.420;17.842;2022-07-10T11:41:42;100885.72;;;25.95;34.56
14293;BME280;7230;59.420;17.842;2022-07-10T11:44:13;100892.97;;;25.95;33.92
14293;BME280;7230;59.420;17.842;2022-07-10T11:46:41;100879.50;;;25.85;34.49
14293;BME280;7230;59.420;17.842;2022-07-10T11:49:11;100893.81;;;25.95;34.60
14293;BME280;7230;59.420;17.842;2022-07-10T11:51:43;100898.25;;;25.96;33.76
14293;BME280;7230;59.420;17.842;2022-07-10T11:54:13;100897.38;;;25.96;33.70
14293;BME280;7230;59.420;17.842;2022-07-10T11:56:47;100901.81;;;25.97;33.47
14293;BME280;7230;59.420;17.842;2022-07-10T11:59:16;100891.13;;;25.95;33.93
14293;BME280;7230;59.420;17.842;2022-07-10T12:01:45;100889.56;;;25.93;33.51
14293;BME280;7230;59.420;17.842;2022-07-10T12:04:14;100894.69;;;25.96;34.00
14293;BME280;7230;59.420;17.842;2022-07-10T12:06:45;100892.97;;;25.95;34.41
14293;BME280;7230;59.420;17.842;2022-07-10T12:09:14;100901.22;;;25.93;34.32
14293;BME280;7230;59.420;17.842;2022-07-10T12:11:44;100897.38;;;25.96;33.97
14293;BME280;7230;59.420;17.842;2022-07-10T12:14:25;100911.75;;;25.96;35.00
14293;BME280;7230;59.420;17.842;2022-07-10T12:16:54;100911.59;;;25.98;34.72
14293;BME280;7230;59.420;17.842;2022-07-10T12:19:24;100912.44;;;25.98;34.51
14293;BME280;7230;59.420;17.842;2022-07-10T12:21:55;100928.66;;;25.98;34.82
14293;BME280;7230;59.420;17.842;2022-07-10T12:24:24;100924.97;;;25.99;35.07
14293;BME280;7230;59.420;17.842;2022-07-10T12:26:53;100920.38;;;26.00;35.00
14293;BME280;7230;59.420;17.842;2022-07-10T12:29:23;100919.56;;;25.99;35.24
14293;BME280;7230;59.420;17.842;2022-07-10T12:31:52;100930.38;;;25.99;35.33
14293;BME280;7230;59.420;17.842;2022-07-10T12:34:33;100922.25;;;25.99;35.32
14293;BME280;7230;59.420;17.842;2022-07-10T12:37:08;100929.50;;;25.99;35.50
14293;BME280;7230;59.420;17.842;2022-07-10T12:39:37;100930.50;;;25.98;35.28
14293;BME280;7230;59.420;17.842;2022-07-10T12:42:06;100927.78;;;25.98;35.33
14293;BME280;7230;59.420;17.842;2022-07-10T12:44:36;100926.94;;;25.97;35.07
14293;BME280;7230;59.420;17.842;2022-07-10T12:47:05;100918.13;;;25.95;35.24
14293;BME280;7230;59.420;17.842;2022-07-10T12:49:53;100922.66;;;25.95;35.06
14293;BME280;7230;59.420;17.842;2022-07-10T12:52:28;100926.38;;;25.94;34.76
14293;BME280;7230;59.420;17.842;2022-07-10T12:55:09;100921.00;;;25.94;34.63
14293;BME280;7230;59.420;17.842;2022-07-10T12:57:47;100922.94;;;25.92;34.68
14293;BME280;7230;59.420;17.842;2022-07-10T13:00:17;100926.66;;;25.91;34.64
14293;BME280;7230;59.420;17.842;2022-07-10T13:02:46;100921.28;;;25.91;34.61
14293;BME280;7230;59.420;17.842;2022-07-10T13:05:30;100921.28;;;25.91;34.63
14293;BME280;7230;59.420;17.842;2022-07-10T13:08:11;100914.44;;;25.87;34.65